sensor_id;sensor_type;location;lat;lon;timestamp;P1;durP1;ratioP1;P2;durP2;ratioP2
25479;SDS011;13393;49.378;8.686;2022-07-05T00:02:05;1.77;;;0.85;;
25479;SDS011;13393;49.378;8.686;2022-07-05T00:04:32;2.47;;;1.13;;
25479;SDS011;13393;49.378;8.686;2022-07-05T00:06:58;1.70;;;1.00;;
25479;SDS011;13393;49.378;8.686;2022-07-05T00:09:42;1.33;;;1.00;;
25479;SDS011;13393;49.378;8.686;2022-07-05T00:12:09;3.83;;;1.42;;
25479;SDS011;13393;49.378;8.686;2022-07-05T00:14:36;1.48;;;1.23;;
25479;SDS011;13393;49.378;8.686;2022-07-05T00:17:03;2.13;;;1.02;;
25479;SDS011;13393;49.378;8.686;2022-07-05T00:19:29;3.25;;;0.80;;
25479;SDS011;13393;49.378;8.686;2022-07-05T00:21:56;0.95;;;0.90;;
25479;SDS011;13393;49.378;8.686;2022-07-05T00:24:23;1.30;;;0.85;;
25479;SDS011;13393;49.378;8.686;2022-07-05T00:26:49;4.45;;;0.98;;
25479;SDS011;13393;49.378;8.686;2022-07-05T00:29:15;2.75;;;1.00;;
25479;SDS011;13393;49.378;8.686;2022-07-05T00:31:43;0.80;;;0.80;;
25479;SDS011;13393;49.378;8.686;2022-07-05T00:34:09;2.05;;;1.13;;
25479;SDS011;13393;49.378;8.686;2022-07-05T00:36:36;2.63;;;0.90;;
25479;SDS011;13393;49.378;8.686;2022-07-05T00:39:02;2.28;;;1.13;;
25479;SDS011;13393;49.378;8.686;2022-07-05T00:41:29;3.55;;;1.00;;
25479;SDS011;13393;49.378;8.686;2022-07-05T00:43:56;2.15;;;1.10;;
25479;SDS011;13393;49.378;8.686;2022-07-05T00:46:23;3.53;;;1.30;;
25479;SDS011;13393;49.378;8.686;2022-07-05T00:48:51;1.75;;;1.00;;
25479;SDS011;13393;49.378;8.686;2022-07-05T00:51:17;1.63;;;1.10;;
25479;SDS011;13393;49.378;8.686;2022-07-05T00:53:44;16.55;;;1.48;;
25479;SDS011;13393;49.378;8.686;2022-07-05T00:56:10;3.88;;;1.10;;
25479;SDS011;13393;49.378;8.686;2022-07-05T00:58:37;3.67;;;1.30;;
25479;SDS011;13393;49.378;8.686;2022-07-05T01:01:03;3.45;;;1.52;;
25479;SDS011;13393;49.378;8.686;2022-07-05T01:03:32;1.05;;;0.95;;
25479;SDS011;13393;49.378;8.686;2022-07-05T01:05:59;2.67;;;1.17;;
25479;SDS011;13393;49.378;8.686;2022-07-05T01:08:26;1.88;;;1.20;;
25479;SDS011;13393;49.378;8.686;2022-07-05T01:10:53;4.40;;;1.17;;
25479;SDS011;13393;49.378;8.686;2022-07-05T01:13:21;5.22;;;1.50;;
25479;SDS011;13393;49.378;8.686;2022-07-05T01:15:48;6.35;;;1.38;;
25479;SDS011;13393;49.378;8.686;2022-07-05T01:18:14;2.05;;;1.10;;
25479;SDS011;13393;49.378;8.686;2022-07-05T01:20:41;1.35;;;1.10;;
25479;SDS011;13393;49.378;8.686;2022-07-05T01:23:09;1.42;;;1.10;;
25479;SDS011;13393;49.378;8.686;2022-07-05T01:25:35;2.75;;;1.10;;
25479;SDS011;13393;49.378;8.686;2022-07-05T01:28:02;3.50;;;1.05;;
25479;SDS011;13393;49.378;8.686;2022-07-05T01:30:29;2.88;;;1.10;;
25479;SDS011;13393;49.378;8.686;2022-07-05T01:32:56;2.33;;;1.00;;
25479;SDS011;13393;49.378;8.686;2022-07-05T01:35:22;2.03;;;1.10;;
25479;SDS011;13393;49.378;8.686;2022-07-05T01:37:49;2.05;;;1.00;;
25479;SDS011;13393;49.378;8.686;2022-07-05T01:40:18;3.05;;;0.88;;
25479;SDS011;13393;49.378;8.686;2022-07-05T01:42:45;2.70;;;1.25;;
25479;SDS011;13393;49.378;8.686;2022-07-05T01:45:11;3.45;;;1.00;;
25479;SDS011;13393;49.378;8.686;2022-07-05T01:47:58;1.20;;;1.00;;
25479;SDS011;13393;49.378;8.686;2022-07-05T01:50:25;3.08;;;1.40;;
25479;SDS011;13393;49.378;8.686;2022-07-05T01:52:51;3.25;;;0.95;;
25479;SDS011;13393;49.378;8.686;2022-07-05T01:55:19;2.95;;;1.02;;
25479;SDS011;13393;49.378;8.686;2022-07-05T01:57:46;2.45;;;1.52;;
25479;SDS011;13393;49.378;8.686;2022-07-05T02:00:13;1.10;;;0.90;;
25479;SDS011;13393;49.378;8.686;2022-07-05T02:02:39;1.17;;;1.08;;
25479;SDS011;13393;49.378;8.686;2022-07-05T02:05:06;5.65;;;1.20;;
25479;SDS011;13393;49.378;8.686;2022-07-05T02:07:33;2.05;;;1.10;;
25479;SDS011;13393;49.378;8.686;2022-07-05T02:09:59;0.82;;;0.75;;
25479;SDS011;13393;49.378;8.686;2022-07-05T02:12:27;2.47;;;0.98;;
25479;SDS011;13393;49.378;8.686;2022-07-05T02:14:53;2.33;;;1.00;;
25479;SDS011;13393;49.378;8.686;2022-07-05T02:17:19;1.23;;;0.80;;
25479;SDS011;13393;49.378;8.686;2022-07-05T02:19:46;1.90;;;0.98;;
25479;SDS011;13393;49.378;8.686;2022-07-05T02:22:12;1.40;;;1.02;;
25479;SDS011;13393;49.378;8.686;2022-07-05T02:24:39;1.33;;;1.10;;
25479;SDS011;13393;49.378;8.686;2022-07-05T02:27:05;2.17;;;1.10;;
25479;SDS011;13393;49.378;8.686;2022-07-05T02:29:33;1.33;;;0.85;;
25479;SDS011;13393;49.378;8.686;2022-07-05T02:31:59;1.35;;;0.95;;
25479;SDS011;13393;49.378;8.686;2022-07-05T02:34:26;2.35;;;0.90;;
25479;SDS011;13393;49.378;8.686;2022-07-05T02:36:52;1.20;;;1.02;;
25479;SDS011;13393;49.378;8.686;2022-07-05T02:39:18;3.22;;;1.15;;
25479;SDS011;13393;49.378;8.686;2022-07-05T02:41:45;3.08;;;1.08;;
25479;SDS011;13393;49.378;8.686;2022-07-05T02:44:11;1.20;;;0.80;;
25479;SDS011;13393;49.378;8.686;2022-07-05T02:46:39;2.47;;;0.95;;
25479;SDS011;13393;49.378;8.686;2022-07-05T02:49:05;1.52;;;0.82;;
25479;SDS011;13393;49.378;8.686;2022-07-05T02:51:32;1.27;;;0.90;;
25479;SDS011;13393;49.378;8.686;2022-07-05T02:53:58;1.90;;;1.00;;
25479;SDS011;13393;49.378;8.686;2022-07-05T02:56:25;1.52;;;0.80;;
25479;SDS011;13393;49.378;8.686;2022-07-05T02:58:51;1.20;;;0.93;;
25479;SDS011;13393;49.378;8.686;2022-07-05T03:01:17;1.85;;;1.10;;
25479;SDS011;13393;49.378;8.686;2022-07-05T03:03:45;2.50;;;1.15;;
25479;SDS011;13393;49.378;8.686;2022-07-05T03:06:11;1.02;;;0.90;;
25479;SDS011;13393;49.378;8.686;2022-07-05T03:08:38;1.35;;;1.00;;
25479;SDS011;13393;49.378;8.686;2022-07-05T03:11:04;1.85;;;1.10;;
25479;SDS011;13393;49.378;8.686;2022-07-05T03:13:30;3.60;;;1.25;;
25479;SDS011;13393;49.378;8.686;2022-07-05T03:15:57;1.35;;;0.90;;
25479;SDS011;13393;49.378;8.686;2022-07-05T03:18:23;2.33;;;1.42;;
25479;SDS011;13393;49.378;8.686;2022-07-05T03:20:51;2.90;;;1.25;;
25479;SDS011;13393;49.378;8.686;2022-07-05T03:23:17;4.35;;;1.40;;
25479;SDS011;13393;49.378;8.686;2022-07-05T03:25:44;2.65;;;1.10;;
25479;SDS011;13393;49.378;8.686;2022-07-05T03:28:10;2.00;;;1.02;;
25479;SDS011;13393;49.378;8.686;2022-07-05T03:30:36;2.03;;;1.20;;
25479;SDS011;13393;49.378;8.686;2022-07-05T03:33:03;2.70;;;0.90;;
25479;SDS011;13393;49.378;8.686;2022-07-05T03:35:29;2.47;;;1.35;;
25479;SDS011;13393;49.378;8.686;2022-07-05T03:37:57;2.30;;;1.02;;
25479;SDS011;13393;49.378;8.686;2022-07-05T03:40:23;2.38;;;1.20;;
25479;SDS011;13393;49.378;8.686;2022-07-05T03:42:50;1.42;;;1.20;;
25479;SDS011;13393;49.378;8.686;2022-07-05T03:45:16;1.60;;;1.00;;
25479;SDS011;13393;49.378;8.686;2022-07-05T03:47:42;1.23;;;1.13;;
25479;SDS011;13393;49.378;8.686;2022-07-05T03:50:09;1.45;;;1.00;;
25479;SDS011;13393;49.378;8.686;2022-07-05T03:52:35;2.88;;;1.30;;
25479;SDS011;13393;49.378;8.686;2022-07-05T03:55:03;2.75;;;1.08;;
25479;SDS011;13393;49.378;8.686;2022-07-05T03:57:30;1.35;;;1.10;;
25479;SDS011;13393;49.378;8.686;2022-07-05T03:59:56;1.20;;;1.10;;
25479;SDS011;13393;49.378;8.686;2022-07-05T04:02:23;3.15;;;1.70;;
25479;SDS011;13393;49.378;8.686;2022-07-05T04:04:49;2.13;;;1.17;;
25479;SDS011;13393;49.378;8.686;2022-07-05T04:07:15;3.80;;;1.23;;
25479;SDS011;13393;49.378;8.686;2022-07-05T04:09:42;1.30;;;1.20;;
25479;SDS011;13393;49.378;8.686;2022-07-05T04:12:10;2.83;;;1.25;;
25479;SDS011;13393;49.378;8.686;2022-07-05T04:14:36;1.98;;;0.88;;
25479;SDS011;13393;49.378;8.686;2022-07-05T04:17:03;1.60;;;1.10;;
25479;SDS011;13393;49.378;8.686;2022-07-05T04:19:29;2.08;;;1.10;;
25479;SDS011;13393;49.378;8.686;2022-07-05T04:21:56;2.33;;;1.15;;
25479;SDS011;13393;49.378;8.686;2022-07-05T04:24:22;1.27;;;1.13;;
25479;SDS011;13393;49.378;8.686;2022-07-05T04:26:49;2.15;;;1.10;;
25479;SDS011;13393;49.378;8.686;2022-07-05T04:29:18;2.55;;;1.45;;
25479;SDS011;13393;49.378;8.686;2022-07-05T04:31:44;2.13;;;1.30;;
25479;SDS011;13393;49.378;8.686;2022-07-05T04:34:10;2.08;;;1.33;;
25479;SDS011;13393;49.378;8.686;2022-07-05T04:36:37;2.85;;;1.30;;
25479;SDS011;13393;49.378;8.686;2022-07-05T04:39:05;3.80;;;1.38;;
25479;SDS011;13393;49.378;8.686;2022-07-05T04:41:31;1.83;;;1.42;;
25479;SDS011;13393;49.378;8.686;2022-07-05T04:43:58;2.25;;;1.10;;
25479;SDS011;13393;49.378;8.686;2022-07-05T04:46:25;2.60;;;1.20;;
25479;SDS011;13393;49.378;8.686;2022-07-05T04:48:52;3.03;;;1.50;;
25479;SDS011;13393;49.378;8.686;2022-07-05T04:51:18;4.38;;;1.17;;
25479;SDS011;13393;49.378;8.686;2022-07-05T04:53:44;3.45;;;1.23;;
25479;SDS011;13393;49.378;8.686;2022-07-05T04:56:11;5.70;;;1.50;;
25479;SDS011;13393;49.378;8.686;2022-07-05T04:58:37;3.40;;;1.65;;
25479;SDS011;13393;49.378;8.686;2022-07-05T05:01:06;4.32;;;1.55;;
25479;SDS011;13393;49.378;8.686;2022-07-05T05:03:34;4.82;;;1.98;;
25479;SDS011;13393;49.378;8.686;2022-07-05T05:06:01;7.07;;;1.80;;
25479;SDS011;13393;49.378;8.686;2022-07-05T05:08:28;2.58;;;1.60;;
25479;SDS011;13393;49.378;8.686;2022-07-05T05:10:54;4.88;;;1.95;;
25479;SDS011;13393;49.378;8.686;2022-07-05T05:13:20;8.48;;;2.47;;
25479;SDS011;13393;49.378;8.686;2022-07-05T05:15:47;5.60;;;2.53;;
25479;SDS011;13393;49.378;8.686;2022-07-05T05:18:13;8.60;;;1.75;;
25479;SDS011;13393;49.378;8.686;2022-07-05T05:20:41;9.48;;;2.22;;
25479;SDS011;13393;49.378;8.686;2022-07-05T05:23:08;6.32;;;1.90;;
25479;SDS011;13393;49.378;8.686;2022-07-05T05:25:34;4.72;;;1.92;;
25479;SDS011;13393;49.378;8.686;2022-07-05T05:28:01;6.85;;;1.80;;
25479;SDS011;13393;49.378;8.686;2022-07-05T05:30:28;4.43;;;1.75;;
25479;SDS011;13393;49.378;8.686;2022-07-05T05:32:54;6.80;;;1.65;;
25479;SDS011;13393;49.378;8.686;2022-07-05T05:35:20;6.00;;;1.95;;
25479;SDS011;13393;49.378;8.686;2022-07-05T05:37:50;4.60;;;2.00;;
25479;SDS011;13393;49.378;8.686;2022-07-05T05:40:17;7.53;;;2.42;;
25479;SDS011;13393;49.378;8.686;2022-07-05T05:42:43;5.20;;;1.95;;
25479;SDS011;13393;49.378;8.686;2022-07-05T05:45:10;3.60;;;1.95;;
25479;SDS011;13393;49.378;8.686;2022-07-05T05:47:46;4.78;;;2.00;;
25479;SDS011;13393;49.378;8.686;2022-07-05T05:50:13;5.47;;;1.98;;
25479;SDS011;13393;49.378;8.686;2022-07-05T05:52:39;12.00;;;2.42;;
25479;SDS011;13393;49.378;8.686;2022-07-05T05:55:07;7.55;;;1.88;;
25479;SDS011;13393;49.378;8.686;2022-07-05T05:57:34;4.40;;;1.98;;
25479;SDS011;13393;49.378;8.686;2022-07-05T06:00:01;4.13;;;1.63;;
25479;SDS011;13393;49.378;8.686;2022-07-05T06:02:27;7.95;;;1.80;;
25479;SDS011;13393;49.378;8.686;2022-07-05T06:04:54;6.00;;;2.05;;
25479;SDS011;13393;49.378;8.686;2022-07-05T06:07:20;3.85;;;2.08;;
25479;SDS011;13393;49.378;8.686;2022-07-05T06:09:46;4.05;;;1.63;;
25479;SDS011;13393;49.378;8.686;2022-07-05T06:12:14;9.20;;;2.10;;
25479;SDS011;13393;49.378;8.686;2022-07-05T06:14:40;5.85;;;2.22;;
25479;SDS011;13393;49.378;8.686;2022-07-05T06:17:07;3.88;;;2.10;;
25479;SDS011;13393;49.378;8.686;2022-07-05T06:19:33;6.85;;;2.17;;
25479;SDS011;13393;49.378;8.686;2022-07-05T06:21:59;7.47;;;1.92;;
25479;SDS011;13393;49.378;8.686;2022-07-05T06:24:26;6.20;;;2.40;;
25479;SDS011;13393;49.378;8.686;2022-07-05T06:26:52;6.90;;;1.88;;
25479;SDS011;13393;49.378;8.686;2022-07-05T06:29:20;6.95;;;1.90;;
25479;SDS011;13393;49.378;8.686;2022-07-05T06:31:46;7.80;;;2.00;;
25479;SDS011;13393;49.378;8.686;2022-07-05T06:34:13;7.47;;;2.10;;
25479;SDS011;13393;49.378;8.686;2022-07-05T06:36:39;5.07;;;2.60;;
25479;SDS011;13393;49.378;8.686;2022-07-05T06:39:05;6.70;;;2.33;;
25479;SDS011;13393;49.378;8.686;2022-07-05T06:41:32;8.57;;;2.67;;
25479;SDS011;13393;49.378;8.686;2022-07-05T06:43:58;6.78;;;2.10;;
25479;SDS011;13393;49.378;8.686;2022-07-05T06:46:26;7.47;;;2.08;;
25479;SDS011;13393;49.378;8.686;2022-07-05T06:48:52;3.67;;;2.20;;
25479;SDS011;13393;49.378;8.686;2022-07-05T06:51:19;4.43;;;1.80;;
25479;SDS011;13393;49.378;8.686;2022-07-05T06:53:45;9.15;;;2.00;;
25479;SDS011;13393;49.378;8.686;2022-07-05T06:56:11;7.60;;;1.88;;
25479;SDS011;13393;49.378;8.686;2022-07-05T06:58:38;4.47;;;2.10;;
25479;SDS011;13393;49.378;8.686;2022-07-05T07:01:04;4.32;;;1.70;;
25479;SDS011;13393;49.378;8.686;2022-07-05T07:03:32;6.47;;;1.67;;
25479;SDS011;13393;49.378;8.686;2022-07-05T07:05:58;6.80;;;1.70;;
25479;SDS011;13393;49.378;8.686;2022-07-05T07:08:25;5.72;;;1.88;;
25479;SDS011;13393;49.378;8.686;2022-07-05T07:11:08;6.40;;;1.98;;
25479;SDS011;13393;49.378;8.686;2022-07-05T07:13:35;5.80;;;2.15;;
25479;SDS011;13393;49.378;8.686;2022-07-05T07:16:01;6.53;;;2.10;;
25479;SDS011;13393;49.378;8.686;2022-07-05T07:18:27;3.03;;;1.73;;
25479;SDS011;13393;49.378;8.686;2022-07-05T07:20:58;12.57;;;2.25;;
25479;SDS011;13393;49.378;8.686;2022-07-05T07:23:24;6.75;;;1.95;;
25479;SDS011;13393;49.378;8.686;2022-07-05T07:25:51;5.90;;;2.13;;
25479;SDS011;13393;49.378;8.686;2022-07-05T07:28:17;5.20;;;1.80;;
25479;SDS011;13393;49.378;8.686;2022-07-05T07:30:43;4.40;;;2.03;;
25479;SDS011;13393;49.378;8.686;2022-07-05T07:33:10;5.15;;;2.10;;
25479;SDS011;13393;49.378;8.686;2022-07-05T07:35:36;3.90;;;1.80;;
25479;SDS011;13393;49.378;8.686;2022-07-05T07:38:04;2.60;;;1.65;;
25479;SDS011;13393;49.378;8.686;2022-07-05T07:40:30;3.83;;;1.75;;
25479;SDS011;13393;49.378;8.686;2022-07-05T07:42:56;5.95;;;1.73;;
25479;SDS011;13393;49.378;8.686;2022-07-05T07:45:23;4.47;;;1.80;;
25479;SDS011;13393;49.378;8.686;2022-07-05T07:47:51;5.18;;;1.75;;
25479;SDS011;13393;49.378;8.686;2022-07-05T07:50:17;3.80;;;1.30;;
25479;SDS011;13393;49.378;8.686;2022-07-05T07:52:44;5.55;;;1.80;;
25479;SDS011;13393;49.378;8.686;2022-07-05T07:55:11;3.53;;;1.60;;
25479;SDS011;13393;49.378;8.686;2022-07-05T07:57:38;3.00;;;1.90;;
25479;SDS011;13393;49.378;8.686;2022-07-05T08:00:05;4.32;;;1.80;;
25479;SDS011;13393;49.378;8.686;2022-07-05T08:02:32;5.35;;;1.85;;
25479;SDS011;13393;49.378;8.686;2022-07-05T08:04:58;6.68;;;1.65;;
25479;SDS011;13393;49.378;8.686;2022-07-05T08:07:24;10.25;;;1.90;;
25479;SDS011;13393;49.378;8.686;2022-07-05T08:09:51;2.45;;;1.40;;
25479;SDS011;13393;49.378;8.686;2022-07-05T08:12:19;3.10;;;1.60;;
25479;SDS011;13393;49.378;8.686;2022-07-05T08:14:46;8.00;;;2.10;;
25479;SDS011;13393;49.378;8.686;2022-07-05T08:17:12;3.63;;;1.67;;
25479;SDS011;13393;49.378;8.686;2022-07-05T08:19:38;4.18;;;1.40;;
25479;SDS011;13393;49.378;8.686;2022-07-05T08:22:22;3.28;;;1.40;;
25479;SDS011;13393;49.378;8.686;2022-07-05T08:24:49;5.93;;;1.77;;
25479;SDS011;13393;49.378;8.686;2022-07-05T08:27:16;2.72;;;1.38;;
25479;SDS011;13393;49.378;8.686;2022-07-05T08:29:43;3.05;;;1.48;;
25479;SDS011;13393;49.378;8.686;2022-07-05T08:32:10;1.30;;;1.23;;
25479;SDS011;13393;49.378;8.686;2022-07-05T08:34:36;5.85;;;1.50;;
25479;SDS011;13393;49.378;8.686;2022-07-05T08:37:03;2.33;;;1.20;;
25479;SDS011;13393;49.378;8.686;2022-07-05T08:39:29;2.28;;;1.45;;
25479;SDS011;13393;49.378;8.686;2022-07-05T08:41:56;3.72;;;1.90;;
25479;SDS011;13393;49.378;8.686;2022-07-05T08:44:23;3.40;;;1.50;;
25479;SDS011;13393;49.378;8.686;2022-07-05T08:46:51;2.50;;;1.50;;
25479;SDS011;13393;49.378;8.686;2022-07-05T08:49:20;3.70;;;1.80;;
25479;SDS011;13393;49.378;8.686;2022-07-05T08:51:47;2.00;;;1.60;;
25479;SDS011;13393;49.378;8.686;2022-07-05T08:54:14;2.45;;;1.48;;
25479;SDS011;13393;49.378;8.686;2022-07-05T08:56:40;5.25;;;1.90;;
25479;SDS011;13393;49.378;8.686;2022-07-05T08:59:07;5.18;;;1.85;;
25479;SDS011;13393;49.378;8.686;2022-07-05T09:01:33;2.20;;;1.42;;
25479;SDS011;13393;49.378;8.686;2022-07-05T09:04:03;1.73;;;1.33;;
25479;SDS011;13393;49.378;8.686;2022-07-05T09:06:30;7.07;;;2.10;;
25479;SDS011;13393;49.378;8.686;2022-07-05T09:08:58;2.35;;;1.55;;
25479;SDS011;13393;49.378;8.686;2022-07-05T09:11:25;2.85;;;1.42;;
25479;SDS011;13393;49.378;8.686;2022-07-05T09:13:54;2.30;;;1.63;;
25479;SDS011;13393;49.378;8.686;2022-07-05T09:16:21;2.97;;;1.50;;
25479;SDS011;13393;49.378;8.686;2022-07-05T09:18:48;3.53;;;1.45;;
25479;SDS011;13393;49.378;8.686;2022-07-05T09:21:16;2.15;;;1.55;;
25479;SDS011;13393;49.378;8.686;2022-07-05T09:23:43;2.67;;;1.42;;
25479;SDS011;13393;49.378;8.686;2022-07-05T09:26:09;4.03;;;1.45;;
25479;SDS011;13393;49.378;8.686;2022-07-05T09:28:36;4.38;;;1.65;;
25479;SDS011;13393;49.378;8.686;2022-07-05T09:31:03;3.55;;;1.50;;
25479;SDS011;13393;49.378;8.686;2022-07-05T09:33:29;6.93;;;1.23;;
25479;SDS011;13393;49.378;8.686;2022-07-05T09:35:56;3.80;;;1.40;;
25479;SDS011;13393;49.378;8.686;2022-07-05T09:38:24;2.70;;;1.15;;
25479;SDS011;13393;49.378;8.686;2022-07-05T09:40:52;5.13;;;1.33;;
25479;SDS011;13393;49.378;8.686;2022-07-05T09:43:19;3.78;;;1.08;;
25479;SDS011;13393;49.378;8.686;2022-07-05T09:45:52;4.88;;;1.40;;
25479;SDS011;13393;49.378;8.686;2022-07-05T09:48:19;4.82;;;1.40;;
25479;SDS011;13393;49.378;8.686;2022-07-05T09:50:45;6.03;;;1.25;;
25479;SDS011;13393;49.378;8.686;2022-07-05T09:53:12;3.15;;;1.27;;
25479;SDS011;13393;49.378;8.686;2022-07-05T09:55:39;2.72;;;1.10;;
25479;SDS011;13393;49.378;8.686;2022-07-05T09:58:06;3.65;;;1.20;;
25479;SDS011;13393;49.378;8.686;2022-07-05T10:00:32;2.17;;;1.00;;
25479;SDS011;13393;49.378;8.686;2022-07-05T10:02:59;1.90;;;1.20;;
25479;SDS011;13393;49.378;8.686;2022-07-05T10:05:27;4.95;;;1.10;;
25479;SDS011;13393;49.378;8.686;2022-07-05T10:07:54;3.95;;;1.00;;
25479;SDS011;13393;49.378;8.686;2022-07-05T10:10:22;1.25;;;0.85;;
25479;SDS011;13393;49.378;8.686;2022-07-05T10:12:50;3.88;;;1.02;;
25479;SDS011;13393;49.378;8.686;2022-07-05T10:15:18;1.70;;;0.90;;
25479;SDS011;13393;49.378;8.686;2022-07-05T10:17:45;4.53;;;1.10;;
25479;SDS011;13393;49.378;8.686;2022-07-05T10:20:24;1.77;;;1.00;;
25479;SDS011;13393;49.378;8.686;2022-07-05T10:22:52;4.10;;;1.40;;
25479;SDS011;13393;49.378;8.686;2022-07-05T10:25:18;1.95;;;1.30;;
25479;SDS011;13393;49.378;8.686;2022-07-05T10:27:45;1.67;;;0.90;;
25479;SDS011;13393;49.378;8.686;2022-07-05T10:30:13;1.10;;;0.98;;
25479;SDS011;13393;49.378;8.686;2022-07-05T10:32:41;7.90;;;1.55;;
25479;SDS011;13393;49.378;8.686;2022-07-05T10:35:08;4.25;;;1.42;;
25479;SDS011;13393;49.378;8.686;2022-07-05T10:37:35;4.30;;;0.95;;
25479;SDS011;13393;49.378;8.686;2022-07-05T10:40:02;3.13;;;0.98;;
25479;SDS011;13393;49.378;8.686;2022-07-05T10:42:31;2.78;;;1.10;;
25479;SDS011;13393;49.378;8.686;2022-07-05T10:44:58;4.82;;;1.00;;
25479;SDS011;13393;49.378;8.686;2022-07-05T10:47:26;3.35;;;1.15;;
25479;SDS011;13393;49.378;8.686;2022-07-05T10:50:04;4.32;;;1.48;;
25479;SDS011;13393;49.378;8.686;2022-07-05T10:52:31;1.83;;;1.13;;
25479;SDS011;13393;49.378;8.686;2022-07-05T11:00:09;2.70;;;1.20;;
25479;SDS011;13393;49.378;8.686;2022-07-05T11:02:37;3.08;;;1.13;;
25479;SDS011;13393;49.378;8.686;2022-07-05T11:05:03;5.65;;;1.40;;
25479;SDS011;13393;49.378;8.686;2022-07-05T11:07:56;3.45;;;1.13;;
25479;SDS011;13393;49.378;8.686;2022-07-05T11:10:23;6.53;;;1.20;;
25479;SDS011;13393;49.378;8.686;2022-07-05T11:12:49;4.03;;;1.25;;
25479;SDS011;13393;49.378;8.686;2022-07-05T11:15:16;2.97;;;0.85;;
25479;SDS011;13393;49.378;8.686;2022-07-05T11:17:43;3.95;;;1.23;;
25479;SDS011;13393;49.378;8.686;2022-07-05T11:20:14;5.13;;;1.30;;
25479;SDS011;13393;49.378;8.686;2022-07-05T11:22:41;4.78;;;1.25;;
25479;SDS011;13393;49.378;8.686;2022-07-05T11:25:26;3.42;;;1.23;;
25479;SDS011;13393;49.378;8.686;2022-07-05T11:28:00;2.28;;;1.23;;
25479;SDS011;13393;49.378;8.686;2022-07-05T11:30:27;3.53;;;1.20;;
25479;SDS011;13393;49.378;8.686;2022-07-05T11:32:55;2.10;;;1.10;;
25479;SDS011;13393;49.378;8.686;2022-07-05T11:35:28;5.70;;;1.00;;
25479;SDS011;13393;49.378;8.686;2022-07-05T11:37:58;3.20;;;1.00;;
25479;SDS011;13393;49.378;8.686;2022-07-05T11:40:27;2.10;;;1.20;;
25479;SDS011;13393;49.378;8.686;2022-07-05T11:42:53;2.70;;;1.27;;
25479;SDS011;13393;49.378;8.686;2022-07-05T11:45:20;2.85;;;1.10;;
25479;SDS011;13393;49.378;8.686;2022-07-05T11:47:46;2.40;;;1.08;;
25479;SDS011;13393;49.378;8.686;2022-07-05T11:50:14;3.00;;;1.10;;
25479;SDS011;13393;49.378;8.686;2022-07-05T11:52:40;4.95;;;1.90;;
25479;SDS011;13393;49.378;8.686;2022-07-05T11:55:07;3.47;;;1.30;;
25479;SDS011;13393;49.378;8.686;2022-07-05T11:57:34;1.70;;;1.10;;
25479;SDS011;13393;49.378;8.686;2022-07-05T12:00:01;4.22;;;1.70;;
25479;SDS011;13393;49.378;8.686;2022-07-05T12:02:27;3.95;;;1.30;;
25479;SDS011;13393;49.378;8.686;2022-07-05T12:04:54;3.25;;;1.40;;
25479;SDS011;13393;49.378;8.686;2022-07-05T12:07:26;3.20;;;1.60;;
25479;SDS011;13393;49.378;8.686;2022-07-05T12:09:52;3.35;;;0.98;;
25479;SDS011;13393;49.378;8.686;2022-07-05T12:12:36;4.80;;;1.23;;
25479;SDS011;13393;49.378;8.686;2022-07-05T12:15:08;3.78;;;1.20;;
25479;SDS011;13393;49.378;8.686;2022-07-05T12:17:36;5.07;;;1.35;;
25479;SDS011;13393;49.378;8.686;2022-07-05T12:20:03;2.00;;;1.13;;
25479;SDS011;13393;49.378;8.686;2022-07-05T12:22:31;4.18;;;1.17;;
25479;SDS011;13393;49.378;8.686;2022-07-05T12:24:58;2.33;;;1.17;;
25479;SDS011;13393;49.378;8.686;2022-07-05T12:27:26;4.47;;;1.23;;
25479;SDS011;13393;49.378;8.686;2022-07-05T12:29:52;4.32;;;1.17;;
25479;SDS011;13393;49.378;8.686;2022-07-05T12:32:19;2.50;;;1.00;;
25479;SDS011;13393;49.378;8.686;2022-07-05T12:34:45;5.03;;;1.17;;
25479;SDS011;13393;49.378;8.686;2022-07-05T12:37:19;7.05;;;1.30;;
25479;SDS011;13393;49.378;8.686;2022-07-05T12:39:47;1.98;;;1.00;;
25479;SDS011;13393;49.378;8.686;2022-07-05T12:45:05;2.30;;;1.00;;
25479;SDS011;13393;49.378;8.686;2022-07-05T12:47:35;3.55;;;1.20;;
25479;SDS011;13393;49.378;8.686;2022-07-05T12:50:02;1.85;;;1.10;;
25479;SDS011;13393;49.378;8.686;2022-07-05T12:52:28;3.67;;;1.30;;
25479;SDS011;13393;49.378;8.686;2022-07-05T12:57:56;1.73;;;0.90;;
25479;SDS011;13393;49.378;8.686;2022-07-05T13:00:28;1.83;;;0.80;;
25479;SDS011;13393;49.378;8.686;2022-07-05T13:02:55;2.90;;;0.90;;
25479;SDS011;13393;49.378;8.686;2022-07-05T13:05:22;1.10;;;1.00;;
25479;SDS011;13393;49.378;8.686;2022-07-05T13:07:49;2.65;;;0.90;;
25479;SDS011;13393;49.378;8.686;2022-07-05T13:10:16;1.63;;;0.90;;
25479;SDS011;13393;49.378;8.686;2022-07-05T13:12:43;1.67;;;0.80;;
25479;SDS011;13393;49.378;8.686;2022-07-05T13:15:11;2.28;;;1.00;;
25479;SDS011;13393;49.378;8.686;2022-07-05T13:17:37;6.00;;;0.90;;
25479;SDS011;13393;49.378;8.686;2022-07-05T13:20:04;3.17;;;1.05;;
25479;SDS011;13393;49.378;8.686;2022-07-05T13:22:31;1.77;;;1.00;;
25479;SDS011;13393;49.378;8.686;2022-07-05T13:24:57;2.33;;;0.90;;
25479;SDS011;13393;49.378;8.686;2022-07-05T13:27:24;3.42;;;1.52;;
25479;SDS011;13393;49.378;8.686;2022-07-05T13:29:50;3.20;;;1.20;;
25479;SDS011;13393;49.378;8.686;2022-07-05T13:32:18;3.85;;;1.10;;
25479;SDS011;13393;49.378;8.686;2022-07-05T13:34:46;2.42;;;1.00;;
25479;SDS011;13393;49.378;8.686;2022-07-05T13:37:14;1.52;;;1.20;;
25479;SDS011;13393;49.378;8.686;2022-07-05T13:39:40;2.40;;;1.08;;
25479;SDS011;13393;49.378;8.686;2022-07-05T13:42:07;3.20;;;1.98;;
25479;SDS011;13393;49.378;8.686;2022-07-05T13:44:33;2.25;;;1.90;;
25479;SDS011;13393;49.378;8.686;2022-07-05T13:46:59;2.55;;;1.85;;
25479;SDS011;13393;49.378;8.686;2022-07-05T13:49:27;3.40;;;1.30;;
25479;SDS011;13393;49.378;8.686;2022-07-05T13:51:54;3.60;;;1.40;;
25479;SDS011;13393;49.378;8.686;2022-07-05T13:54:21;1.08;;;1.08;;
25479;SDS011;13393;49.378;8.686;2022-07-05T13:56:48;4.13;;;1.02;;
25479;SDS011;13393;49.378;8.686;2022-07-05T13:59:14;1.15;;;1.00;;
25479;SDS011;13393;49.378;8.686;2022-07-05T14:01:40;3.00;;;1.00;;
25479;SDS011;13393;49.378;8.686;2022-07-05T14:04:07;1.67;;;0.90;;
25479;SDS011;13393;49.378;8.686;2022-07-05T14:06:34;1.88;;;1.00;;
25479;SDS011;13393;49.378;8.686;2022-07-05T14:09:02;2.08;;;0.80;;
25479;SDS011;13393;49.378;8.686;2022-07-05T14:11:29;2.25;;;1.00;;
25479;SDS011;13393;49.378;8.686;2022-07-05T14:13:55;1.15;;;0.90;;
25479;SDS011;13393;49.378;8.686;2022-07-05T14:16:22;3.33;;;0.90;;
25479;SDS011;13393;49.378;8.686;2022-07-05T14:18:49;1.60;;;0.90;;
25479;SDS011;13393;49.378;8.686;2022-07-05T14:21:15;3.08;;;1.83;;
25479;SDS011;13393;49.378;8.686;2022-07-05T14:23:44;2.47;;;1.30;;
25479;SDS011;13393;49.378;8.686;2022-07-05T14:26:11;3.50;;;1.00;;
25479;SDS011;13393;49.378;8.686;2022-07-05T14:28:38;2.00;;;1.00;;
25479;SDS011;13393;49.378;8.686;2022-07-05T14:31:04;3.70;;;1.08;;
25479;SDS011;13393;49.378;8.686;2022-07-05T14:33:31;5.25;;;0.80;;
25479;SDS011;13393;49.378;8.686;2022-07-05T14:35:57;4.35;;;0.90;;
25479;SDS011;13393;49.378;8.686;2022-07-05T14:38:24;1.73;;;1.00;;
25479;SDS011;13393;49.378;8.686;2022-07-05T14:40:51;1.73;;;0.90;;
25479;SDS011;13393;49.378;8.686;2022-07-05T14:43:18;3.03;;;1.00;;
25479;SDS011;13393;49.378;8.686;2022-07-05T14:45:44;2.33;;;0.90;;
25479;SDS011;13393;49.378;8.686;2022-07-05T14:48:12;4.53;;;1.10;;
25479;SDS011;13393;49.378;8.686;2022-07-05T14:50:39;3.65;;;0.90;;
25479;SDS011;13393;49.378;8.686;2022-07-05T14:53:05;4.35;;;1.00;;
25479;SDS011;13393;49.378;8.686;2022-07-05T14:55:33;1.73;;;1.13;;
25479;SDS011;13393;49.378;8.686;2022-07-05T14:58:01;1.90;;;1.05;;
25479;SDS011;13393;49.378;8.686;2022-07-05T15:00:27;1.27;;;0.80;;